Time;durP1;ratioP1;P1;durP2;ratioP2;P2;SDS_P1;SDS_P2;PMS_P1;PMS_P2;Temp;Humidity;BMP_temperature;BMP_pressure;BME280_temperature;BME280_humidity;BME280_pressure;Samples;Min_cycle;Max_cycle;Signal;HPM_P1;HPM_P2
2023/12/03 00:01:39;;;;;;;26.52;12.23;;;;;;;;;;5010763;28;20069;-73
2023/12/03 00:04:04;;;;;;;44.53;16.85;;;;;;;;;;5007562;28;20037;-74
2023/12/03 00:06:31;;;;;;;33.75;14.73;;;;;;;;;;5005797;28;20044;-74
2023/12/03 00:08:58;;;;;;;50.47;17.73;;;;;;;;;;5006250;28;20021;-73
2023/12/03 00:11:24;;;;;;;41.08;15.27;;;;;;;;;;5008894;28;20390;-73
2023/12/03 00:13:50;;;;;;;39.10;15.55;;;;;;;;;;4989046;28;20045;-72
2023/12/03 00:16:16;;;;;;;39.72;14.60;;;;;;;;;;4994729;28;20124;-72
2023/12/03 00:18:42;;;;;;;39.35;12.38;;;;;;;;;;5006812;28;20129;-73
2023/12/03 00:21:08;;;;;;;37.80;11.98;;;;;;;;;;5004779;28;20044;-74
2023/12/03 00:23:34;;;;;;;36.25;12.50;;;;;;;;;;5006382;28;20029;-74
2023/12/03 00:26:00;;;;;;;27.30;11.80;;;;;;;;;;5007240;28;20573;-74
2023/12/03 00:28:25;;;;;;;36.95;12.73;;;;;;;;;;5006485;28;20030;-74
2023/12/03 00:30:53;;;;;;;24.05;9.60;;;;;;;;;;4994651;28;20099;-75
2023/12/03 00:33:19;;;;;;;31.55;10.10;;;;;;;;;;5006729;28;20022;-74
2023/12/03 00:35:44;;;;;;;26.40;11.32;;;;;;;;;;5009882;28;20139;-74
2023/12/03 00:38:10;;;;;;;34.75;11.23;;;;;;;;;;5010611;28;20028;-74
2023/12/03 00:40:37;;;;;;;30.67;11.90;;;;;;;;;;5006711;28;20029;-73
2023/12/03 00:43:03;;;;;;;25.70;11.10;;;;;;;;;;5006790;28;20053;-75
2023/12/03 00:45:29;;;;;;;26.10;10.60;;;;;;;;;;5005694;28;20068;-75
2023/12/03 00:47:54;;;;;;;33.67;10.77;;;;;;;;;;5026149;28;20075;-74
2023/12/03 00:50:20;;;;;;;28.92;10.18;;;;;;;;;;5024400;28;20517;-73
2023/12/03 00:52:46;;;;;;;25.98;9.85;;;;;;;;;;5008656;28;20475;-74
2023/12/03 00:55:12;;;;;;;34.13;11.77;;;;;;;;;;5005344;28;20411;-74
2023/12/03 00:57:38;;;;;;;31.55;12.43;;;;;;;;;;5013253;28;20030;-74
2023/12/03 01:00:06;;;;;;;23.63;9.45;;;;;;;;;;5006232;28;20419;-74
2023/12/03 01:02:33;;;;;;;28.80;9.82;;;;;;;;;;5023626;28;20029;-73
2023/12/03 01:04:59;;;;;;;33.80;8.55;;;;;;;;;;5025823;28;20061;-74
2023/12/03 01:07:25;;;;;;;35.05;12.02;;;;;;;;;;5017949;28;20068;-75
2023/12/03 01:09:51;;;;;;;31.27;10.93;;;;;;;;;;5006007;28;20260;-74
2023/12/03 01:12:17;;;;;;;21.83;6.93;;;;;;;;;;5007407;28;20048;-75
2023/12/03 01:14:43;;;;;;;19.70;6.60;;;;;;;;;;5006768;28;20038;-75
2023/12/03 01:17:09;;;;;;;28.52;7.68;;;;;;;;;;5018898;28;20029;-75
2023/12/03 01:19:35;;;;;;;25.45;6.85;;;;;;;;;;5026183;28;20048;-74
2023/12/03 01:22:01;;;;;;;21.05;6.18;;;;;;;;;;5025885;28;20415;-75
2023/12/03 01:24:27;;;;;;;19.75;6.20;;;;;;;;;;5025870;28;20111;-74
2023/12/03 01:26:53;;;;;;;19.77;6.22;;;;;;;;;;5023383;28;20546;-75
2023/12/03 01:29:18;;;;;;;18.05;6.35;;;;;;;;;;5026650;28;20033;-74
2023/12/03 01:31:44;;;;;;;18.52;5.55;;;;;;;;;;5025688;28;20395;-73
2023/12/03 01:34:10;;;;;;;23.45;6.20;;;;;;;;;;5025835;28;20049;-76
2023/12/03 01:36:35;;;;;;;31.40;7.10;;;;;;;;;;5024631;28;20501;-75
2023/12/03 01:39:01;;;;;;;24.25;5.40;;;;;;;;;;5026025;28;20052;-75
2023/12/03 01:41:27;;;;;;;36.65;9.90;;;;;;;;;;5018510;28;20053;-74
2023/12/03 01:43:54;;;;;;;22.40;8.93;;;;;;;;;;5009941;28;20589;-73
2023/12/03 01:46:20;;;;;;;23.08;6.18;;;;;;;;;;4988711;28;20021;-73
2023/12/03 01:48:47;;;;;;;24.92;5.32;;;;;;;;;;5006195;28;20030;-73
2023/12/03 01:51:13;;;;;;;17.92;6.22;;;;;;;;;;5010284;28;20033;-73
2023/12/03 01:53:41;;;;;;;24.90;5.38;;;;;;;;;;4988018;28;20511;-73
2023/12/03 01:56:08;;;;;;;21.92;5.05;;;;;;;;;;5013935;28;20501;-73
2023/12/03 01:58:35;;;;;;;27.42;5.70;;;;;;;;;;5008958;28;20095;-72
2023/12/03 02:01:01;;;;;;;20.33;4.60;;;;;;;;;;5021419;28;20095;-73
2023/12/03 02:03:27;;;;;;;21.33;5.13;;;;;;;;;;4999620;28;20494;-74
2023/12/03 02:06:04;;;;;;;17.02;4.47;;;;;;;;;;4992940;28;20036;-73
2023/12/03 02:08:30;;;;;;;20.40;4.63;;;;;;;;;;5026166;28;20045;-73
2023/12/03 02:10:57;;;;;;;19.92;4.88;;;;;;;;;;5026521;28;20018;-73
2023/12/03 02:13:23;;;;;;;18.92;4.50;;;;;;;;;;5008563;28;20030;-74
2023/12/03 02:15:49;;;;;;;21.17;4.43;;;;;;;;;;5023435;28;20075;-73
2023/12/03 02:18:15;;;;;;;17.80;5.45;;;;;;;;;;5026428;28;20470;-73
2023/12/03 02:20:40;;;;;;;17.50;5.15;;;;;;;;;;5012675;28;20028;-73
2023/12/03 02:23:06;;;;;;;16.25;3.83;;;;;;;;;;5025899;28;20045;-73
2023/12/03 02:25:32;;;;;;;25.65;4.95;;;;;;;;;;5021378;28;20123;-74
2023/12/03 02:27:58;;;;;;;21.05;4.28;;;;;;;;;;5016859;28;20037;-73
2023/12/03 02:30:24;;;;;;;22.30;4.47;;;;;;;;;;5008187;28;20099;-73
2023/12/03 02:32:50;;;;;;;18.83;5.18;;;;;;;;;;5012866;28;20591;-73
2023/12/03 02:35:16;;;;;;;16.17;4.85;;;;;;;;;;5009168;28;20392;-73
2023/12/03 02:37:42;;;;;;;20.55;5.50;;;;;;;;;;5027575;28;20029;-73
2023/12/03 02:40:08;;;;;;;25.40;5.53;;;;;;;;;;5010223;28;20070;-73
2023/12/03 02:42:33;;;;;;;24.83;5.82;;;;;;;;;;5018137;28;20041;-74
2023/12/03 02:45:01;;;;;;;28.20;5.68;;;;;;;;;;5008041;28;20036;-74
2023/12/03 02:47:27;;;;;;;21.60;5.43;;;;;;;;;;5007252;28;20029;-73
2023/12/03 02:49:54;;;;;;;20.40;4.53;;;;;;;;;;5029835;28;20030;-73
2023/12/03 02:52:20;;;;;;;21.90;5.95;;;;;;;;;;5029139;28;20045;-73
2023/12/03 02:54:45;;;;;;;18.08;4.97;;;;;;;;;;5021415;28;20045;-73
2023/12/03 02:57:12;;;;;;;16.23;4.90;;;;;;;;;;5010933;28;20120;-73
2023/12/03 02:59:37;;;;;;;19.15;5.38;;;;;;;;;;5009573;28;20030;-73
2023/12/03 03:02:03;;;;;;;28.63;5.72;;;;;;;;;;4991279;28;20125;-73
2023/12/03 03:04:29;;;;;;;26.23;5.60;;;;;;;;;;5009045;28;20104;-73
2023/12/03 03:06:55;;;;;;;20.08;5.30;;;;;;;;;;5019364;28;20033;-73
2023/12/03 03:09:21;;;;;;;20.00;5.72;;;;;;;;;;5028990;28;20037;-71
2023/12/03 03:11:46;;;;;;;23.00;5.25;;;;;;;;;;5021143;28;20042;-73
2023/12/03 03:14:12;;;;;;;22.85;5.95;;;;;;;;;;5008833;28;20029;-73
2023/12/03 03:16:38;;;;;;;18.92;5.60;;;;;;;;;;4993483;28;20026;-74
2023/12/03 03:19:05;;;;;;;22.55;5.32;;;;;;;;;;5028838;28;20136;-72
2023/12/03 03:21:36;;;;;;;16.13;5.72;;;;;;;;;;5029386;28;20037;-73
2023/12/03 03:24:02;;;;;;;22.92;5.90;;;;;;;;;;5028864;28;20122;-73
2023/12/03 03:26:28;;;;;;;23.80;4.97;;;;;;;;;;5028208;28;20281;-73
2023/12/03 03:28:53;;;;;;;27.63;5.97;;;;;;;;;;5028291;28;20053;-74
2023/12/03 03:31:19;;;;;;;20.65;6.05;;;;;;;;;;5012102;28;20095;-72
2023/12/03 03:33:45;;;;;;;21.60;6.43;;;;;;;;;;5008332;28;20041;-73
2023/12/03 03:36:12;;;;;;;29.98;6.97;;;;;;;;;;5010780;28;20060;-73
2023/12/03 03:38:39;;;;;;;24.42;6.97;;;;;;;;;;5028071;28;20124;-73
2023/12/03 03:41:05;;;;;;;32.67;6.78;;;;;;;;;;5028386;28;20021;-73
2023/12/03 03:43:31;;;;;;;32.60;6.47;;;;;;;;;;5010436;28;20525;-73
2023/12/03 03:45:57;;;;;;;33.30;7.50;;;;;;;;;;5020525;28;20112;-73
2023/12/03 03:48:24;;;;;;;33.58;7.22;;;;;;;;;;5010589;28;20178;-75
2023/12/03 03:50:49;;;;;;;27.27;6.28;;;;;;;;;;5027702;28;20111;-72
2023/12/03 03:53:15;;;;;;;39.22;7.40;;;;;;;;;;5028391;28;20100;-73
2023/12/03 03:55:41;;;;;;;21.13;6.60;;;;;;;;;;5027141;28;20490;-73
2023/12/03 03:58:06;;;;;;;20.42;6.10;;;;;;;;;;5028261;28;20068;-74
2023/12/03 04:00:32;;;;;;;19.17;5.25;;;;;;;;;;5019296;28;20014;-72
2023/12/03 04:02:58;;;;;;;17.20;4.97;;;;;;;;;;4987827;28;20046;-74
2023/12/03 04:05:23;;;;;;;20.75;5.35;;;;;;;;;;5010588;28;20025;-73
2023/12/03 04:07:49;;;;;;;18.27;4.82;;;;;;;;;;5010406;28;20041;-72
2023/12/03 04:10:15;;;;;;;24.15;5.47;;;;;;;;;;5027939;28;20029;-73
2023/12/03 04:12:44;;;;;;;28.92;5.80;;;;;;;;;;5027749;28;20419;-72
2023/12/03 04:15:10;;;;;;;23.88;4.95;;;;;;;;;;5026390;28;20032;-72
2023/12/03 04:17:35;;;;;;;25.83;4.68;;;;;;;;;;5007409;28;20034;-72
2023/12/03 04:20:01;;;;;;;22.02;4.63;;;;;;;;;;5015550;28;20064;-72
2023/12/03 04:22:27;;;;;;;20.98;4.43;;;;;;;;;;5027194;28;20051;-73
2023/12/03 04:24:53;;;;;;;18.98;5.70;;;;;;;;;;5027242;28;20112;-73
2023/12/03 04:27:19;;;;;;;21.85;4.45;;;;;;;;;;5026690;28;20030;-73
2023/12/03 04:29:44;;;;;;;34.67;5.20;;;;;;;;;;5027274;28;20475;-72
2023/12/03 04:32:11;;;;;;;24.27;4.93;;;;;;;;;;5009337;28;20464;-73
2023/12/03 04:34:40;;;;;;;23.10;4.85;;;;;;;;;;5010774;28;20712;-72
2023/12/03 04:37:06;;;;;;;17.88;4.65;;;;;;;;;;5027138;28;20494;-73
2023/12/03 04:39:32;;;;;;;24.00;5.32;;;;;;;;;;5025930;28;20018;-72
2023/12/03 04:41:57;;;;;;;18.20;4.32;;;;;;;;;;5027299;28;20068;-72
2023/12/03 04:44:23;;;;;;;22.42;5.47;;;;;;;;;;5026640;28;20021;-73
2023/12/03 04:46:49;;;;;;;30.67;6.03;;;;;;;;;;4994705;28;20037;-73
2023/12/03 04:49:14;;;;;;;27.75;6.80;;;;;;;;;;5008262;28;20072;-73
2023/12/03 04:51:40;;;;;;;21.70;6.78;;;;;;;;;;5025585;28;20033;-74
2023/12/03 04:54:06;;;;;;;16.30;4.68;;;;;;;;;;5027606;28;20045;-73
2023/12/03 04:56:32;;;;;;;21.70;4.78;;;;;;;;;;5027064;28;20509;-73
2023/12/03 04:58:57;;;;;;;19.67;5.22;;;;;;;;;;5027032;28;20080;-73
2023/12/03 05:01:23;;;;;;;17.77;5.47;;;;;;;;;;4987410;28;20428;-73
2023/12/03 05:03:49;;;;;;;26.60;6.72;;;;;;;;;;4987594;28;20041;-73
2023/12/03 05:06:15;;;;;;;22.23;6.45;;;;;;;;;;5016846;28;20064;-73
2023/12/03 05:08:40;;;;;;;37.88;7.28;;;;;;;;;;5027523;28;20030;-73
2023/12/03 05:11:07;;;;;;;31.73;7.72;;;;;;;;;;5026760;28;20041;-73
2023/12/03 05:13:33;;;;;;;24.83;6.90;;;;;;;;;;5009228;28;20368;-73
2023/12/03 05:16:04;;;;;;;31.90;7.82;;;;;;;;;;5018302;28;20057;-74
2023/12/03 05:18:30;;;;;;;30.27;7.20;;;;;;;;;;5007652;28;20061;-74
2023/12/03 05:20:57;;;;;;;29.90;7.53;;;;;;;;;;5017236;28;20086;-73
2023/12/03 05:23:23;;;;;;;29.83;7.22;;;;;;;;;;5027929;28;20445;-73
2023/12/03 05:25:49;;;;;;;31.70;7.65;;;;;;;;;;5008745;28;20391;-74
2023/12/03 05:28:15;;;;;;;22.02;5.78;;;;;;;;;;5026977;28;20037;-73
2023/12/03 05:30:41;;;;;;;19.58;6.25;;;;;;;;;;5020865;28;20109;-73
2023/12/03 05:33:08;;;;;;;28.15;6.82;;;;;;;;;;4988759;28;20041;-73
2023/12/03 05:35:34;;;;;;;30.13;7.80;;;;;;;;;;5012684;28;20514;-73
2023/12/03 05:37:59;;;;;;;26.48;7.60;;;;;;;;;;5009496;28;20041;-72
2023/12/03 05:40:25;;;;;;;23.38;7.30;;;;;;;;;;5026513;28;20471;-74
2023/12/03 05:42:51;;;;;;;21.58;6.35;;;;;;;;;;5026232;28;20033;-73
2023/12/03 05:45:17;;;;;;;28.80;7.43;;;;;;;;;;5004353;28;20029;-73
2023/12/03 05:47:43;;;;;;;30.88;7.00;;;;;;;;;;4987009;28;20077;-73
2023/12/03 05:50:09;;;;;;;22.25;7.00;;;;;;;;;;4977335;28;20033;-73
2023/12/03 05:52:35;;;;;;;26.85;8.27;;;;;;;;;;5026692;28;20539;-73
2023/12/03 05:55:00;;;;;;;25.85;7.22;;;;;;;;;;5026163;28;20069;-73
2023/12/03 05:57:26;;;;;;;23.33;6.60;;;;;;;;;;5025914;28;20048;-73
2023/12/03 05:59:53;;;;;;;24.60;7.40;;;;;;;;;;5026083;28;20055;-73
2023/12/03 06:02:20;;;;;;;30.63;6.97;;;;;;;;;;5007512;28;20052;-73
2023/12/03 06:04:46;;;;;;;33.78;7.18;;;;;;;;;;4990896;28;20152;-72
2023/12/03 06:07:11;;;;;;;33.10;8.18;;;;;;;;;;5029523;28;20108;-73
2023/12/03 06:09:37;;;;;;;32.53;8.35;;;;;;;;;;5031778;28;20506;-72
2023/12/03 06:12:04;;;;;;;24.55;8.73;;;;;;;;;;5034041;28;20403;-73
2023/12/03 06:14:31;;;;;;;26.45;8.77;;;;;;;;;;5033573;28;20494;-73
2023/12/03 06:16:57;;;;;;;27.10;8.75;;;;;;;;;;5034719;28;20217;-72
2023/12/03 06:19:23;;;;;;;25.65;10.82;;;;;;;;;;5017718;28;20026;-73
2023/12/03 06:21:48;;;;;;;30.70;11.25;;;;;;;;;;5035108;28;20039;-73
2023/12/03 06:24:16;;;;;;;30.25;10.32;;;;;;;;;;5034858;28;20368;-73
2023/12/03 06:26:41;;;;;;;26.10;9.88;;;;;;;;;;5017085;28;20044;-73
2023/12/03 06:29:07;;;;;;;29.40;11.52;;;;;;;;;;5035153;28;20486;-72
2023/12/03 06:31:33;;;;;;;32.10;11.80;;;;;;;;;;5017075;28;20505;-72
2023/12/03 06:33:59;;;;;;;33.42;13.07;;;;;;;;;;5034867;28;20075;-73
2023/12/03 06:36:26;;;;;;;38.28;11.93;;;;;;;;;;5034647;28;20041;-73
2023/12/03 06:38:52;;;;;;;33.25;14.30;;;;;;;;;;5034592;28;20022;-74
2023/12/03 06:41:17;;;;;;;31.40;13.45;;;;;;;;;;5016972;28;20056;-74
2023/12/03 06:43:43;;;;;;;28.83;12.90;;;;;;;;;;5017210;28;20029;-72
2023/12/03 06:46:09;;;;;;;54.60;14.40;;;;;;;;;;5014239;28;20072;-73
2023/12/03 06:48:34;;;;;;;44.00;15.50;;;;;;;;;;5013672;28;20034;-72
2023/12/03 06:51:00;;;;;;;33.15;13.55;;;;;;;;;;5000705;28;20057;-73
2023/12/03 06:53:26;;;;;;;34.47;13.07;;;;;;;;;;4996822;28;20140;-73
2023/12/03 06:55:52;;;;;;;36.83;11.32;;;;;;;;;;5013824;28;20041;-73
2023/12/03 06:58:17;;;;;;;39.40;15.30;;;;;;;;;;4996741;28;20034;-73
2023/12/03 07:00:43;;;;;;;45.08;17.65;;;;;;;;;;4995931;28;20033;-73
2023/12/03 07:03:11;;;;;;;39.65;16.33;;;;;;;;;;5011063;28;20034;-73
2023/12/03 07:05:38;;;;;;;52.83;15.10;;;;;;;;;;5010193;28;20049;-74
2023/12/03 07:08:04;;;;;;;54.03;14.98;;;;;;;;;;5014082;28;20092;-73
2023/12/03 07:10:30;;;;;;;36.75;13.05;;;;;;;;;;5001835;28;20026;-73
2023/12/03 07:12:56;;;;;;;39.40;13.55;;;;;;;;;;4996357;28;20431;-72
2023/12/03 07:15:21;;;;;;;31.88;11.85;;;;;;;;;;4996101;28;20451;-72
2023/12/03 07:17:47;;;;;;;35.05;12.65;;;;;;;;;;5014557;28;20024;-73
2023/12/03 07:20:13;;;;;;;41.40;13.02;;;;;;;;;;5014027;28;20072;-74
2023/12/03 07:22:39;;;;;;;38.45;12.05;;;;;;;;;;5014177;28;20018;-73
2023/12/03 07:25:05;;;;;;;37.80;12.43;;;;;;;;;;5013017;28;20124;-73
2023/12/03 07:27:31;;;;;;;35.53;12.25;;;;;;;;;;4979404;28;20064;-73
2023/12/03 07:29:57;;;;;;;36.10;14.00;;;;;;;;;;5010887;28;20334;-74
2023/12/03 07:32:23;;;;;;;32.60;13.07;;;;;;;;;;5012356;28;20113;-72
2023/12/03 07:34:49;;;;;;;31.50;13.40;;;;;;;;;;5013206;28;20117;-73
2023/12/03 07:37:15;;;;;;;42.13;14.05;;;;;;;;;;5012531;28;20391;-74
2023/12/03 07:39:41;;;;;;;43.03;15.10;;;;;;;;;;5005460;28;20045;-73
2023/12/03 07:42:07;;;;;;;33.95;14.98;;;;;;;;;;5014136;28;20075;-72
2023/12/03 07:44:32;;;;;;;35.67;15.13;;;;;;;;;;5013584;28;20156;-74
2023/12/03 07:46:58;;;;;;;42.25;15.68;;;;;;;;;;4995225;28;20117;-73
2023/12/03 07:49:24;;;;;;;45.53;16.48;;;;;;;;;;5013457;28;20139;-73
2023/12/03 07:51:50;;;;;;;33.00;14.65;;;;;;;;;;5013788;28;20048;-74
2023/12/03 07:54:19;;;;;;;36.05;14.82;;;;;;;;;;4995425;28;20030;-73
2023/12/03 07:56:44;;;;;;;32.83;10.40;;;;;;;;;;5013644;28;20018;-73
2023/12/03 07:59:11;;;;;;;36.45;10.02;;;;;;;;;;5013219;28;20034;-72
2023/12/03 08:01:38;;;;;;;24.48;9.55;;;;;;;;;;5010343;28;20017;-73
2023/12/03 08:04:04;;;;;;;23.45;9.40;;;;;;;;;;5005288;28;20037;-73
2023/12/03 08:06:31;;;;;;;28.65;9.70;;;;;;;;;;5009540;28;20026;-73
2023/12/03 08:08:59;;;;;;;33.67;10.40;;;;;;;;;;5005438;28;20042;-73
2023/12/03 08:11:25;;;;;;;33.35;11.05;;;;;;;;;;5011682;28;20022;-75
2023/12/03 08:13:53;;;;;;;35.40;10.50;;;;;;;;;;5011138;28;20026;-72
2023/12/03 08:16:18;;;;;;;23.42;8.77;;;;;;;;;;5016237;28;20025;-76
2023/12/03 08:18:44;;;;;;;27.13;8.93;;;;;;;;;;4993025;28;20031;-76
2023/12/03 08:21:10;;;;;;;32.00;8.85;;;;;;;;;;4994580;28;20103;-76
2023/12/03 08:23:36;;;;;;;33.03;8.05;;;;;;;;;;5012006;28;20524;-77
2023/12/03 08:26:05;;;;;;;35.28;8.88;;;;;;;;;;5013035;28;20026;-73
2023/12/03 08:28:31;;;;;;;20.95;7.30;;;;;;;;;;4995510;28;20034;-74
2023/12/03 08:30:58;;;;;;;25.10;7.28;;;;;;;;;;4998406;28;20045;-75
2023/12/03 08:33:25;;;;;;;24.38;7.07;;;;;;;;;;5013440;28;20044;-75
2023/12/03 08:35:50;;;;;;;29.90;6.75;;;;;;;;;;5010208;28;20080;-76
2023/12/03 08:38:17;;;;;;;32.10;8.10;;;;;;;;;;5012217;28;20072;-73
2023/12/03 08:40:43;;;;;;;23.83;7.35;;;;;;;;;;5016056;28;20385;-74
2023/12/03 08:43:10;;;;;;;33.78;9.68;;;;;;;;;;5030012;28;20072;-74
2023/12/03 08:45:36;;;;;;;25.65;7.60;;;;;;;;;;5014011;28;20022;-77
2023/12/03 08:48:01;;;;;;;36.58;9.23;;;;;;;;;;5015165;28;20188;-77
2023/12/03 08:50:29;;;;;;;43.55;8.40;;;;;;;;;;5014297;28;20082;-75
2023/12/03 08:52:56;;;;;;;34.85;7.88;;;;;;;;;;5032240;28;20128;-73
2023/12/03 08:55:22;;;;;;;34.28;9.25;;;;;;;;;;5030950;28;20153;-74
2023/12/03 08:57:48;;;;;;;31.83;9.48;;;;;;;;;;5032175;28;20033;-73
2023/12/03 09:00:15;;;;;;;30.05;9.07;;;;;;;;;;5014373;28;20053;-73
2023/12/03 09:02:44;;;;;;;25.20;7.72;;;;;;;;;;5014312;28;20061;-73
2023/12/03 09:05:10;;;;;;;27.15;6.75;;;;;;;;;;5031842;28;20424;-73
2023/12/03 09:07:35;;;;;;;27.50;7.38;;;;;;;;;;5032315;28;20107;-73
2023/12/03 09:10:02;;;;;;;30.25;6.60;;;;;;;;;;5031906;28;20040;-74
2023/12/03 09:12:28;;;;;;;39.13;7.13;;;;;;;;;;5019888;28;20064;-73
2023/12/03 09:14:54;;;;;;;23.15;5.10;;;;;;;;;;5012294;28;20500;-74
2023/12/03 09:17:19;;;;;;;20.27;4.28;;;;;;;;;;4994376;28;20048;-74
2023/12/03 09:19:45;;;;;;;25.00;5.57;;;;;;;;;;5011507;28;20467;-73
2023/12/03 09:22:11;;;;;;;36.17;8.10;;;;;;;;;;5012168;28;20380;-73
2023/12/03 09:24:36;;;;;;;40.80;5.68;;;;;;;;;;5012689;28;20030;-74
2023/12/03 09:27:03;;;;;;;29.20;4.97;;;;;;;;;;5011859;28;20038;-76
2023/12/03 09:29:29;;;;;;;33.22;6.40;;;;;;;;;;5011461;28;20030;-76
2023/12/03 09:31:55;;;;;;;29.45;6.65;;;;;;;;;;5011842;28;20104;-74
2023/12/03 09:34:20;;;;;;;32.13;6.45;;;;;;;;;;5011658;28;20022;-74
2023/12/03 09:36:46;;;;;;;19.98;4.10;;;;;;;;;;5012070;28;20051;-74
2023/12/03 09:39:12;;;;;;;25.95;4.50;;;;;;;;;;5014304;28;20022;-76
2023/12/03 09:41:44;;;;;;;27.77;3.70;;;;;;;;;;5016058;28;20084;-73
2023/12/03 09:44:36;;;;;;;20.48;3.90;;;;;;;;;;5015962;28;20042;-74
2023/12/03 09:47:02;;;;;;;22.27;4.80;;;;;;;;;;4997845;28;20076;-73
2023/12/03 09:49:29;;;;;;;30.80;10.00;;;;;;;;;;5015867;28;20026;-73
2023/12/03 09:52:02;;;;;;;25.63;9.77;;;;;;;;;;5016338;28;20089;-74
2023/12/03 09:54:30;;;;;;;22.42;5.88;;;;;;;;;;5015780;28;20111;-76
2023/12/03 09:56:59;;;;;;;17.17;3.92;;;;;;;;;;5015791;28;20026;-74
2023/12/03 09:59:27;;;;;;;20.73;4.95;;;;;;;;;;5010563;28;20030;-76
2023/12/03 10:01:55;;;;;;;23.52;4.38;;;;;;;;;;4996619;28;20509;-75
2023/12/03 10:04:22;;;;;;;21.33;4.97;;;;;;;;;;5013685;28;20109;-76
2023/12/03 10:06:50;;;;;;;21.25;5.13;;;;;;;;;;5015027;28;20057;-77
2023/12/03 10:09:16;;;;;;;24.30;4.25;;;;;;;;;;4997778;28;20083;-76
2023/12/03 10:11:52;;;;;;;19.90;4.50;;;;;;;;;;5014476;28;20101;-76
2023/12/03 10:14:19;;;;;;;20.92;4.43;;;;;;;;;;4993538;28;20042;-75
2023/12/03 10:16:48;;;;;;;21.33;4.10;;;;;;;;;;5016217;28;20068;-76
2023/12/03 10:19:26;;;;;;;16.85;3.88;;;;;;;;;;5010418;28;20072;-76
2023/12/03 10:21:53;;;;;;;18.65;4.53;;;;;;;;;;5012387;28;20085;-78
2023/12/03 10:24:19;;;;;;;23.42;4.47;;;;;;;;;;5014266;28;20022;-75
2023/12/03 10:26:50;;;;;;;20.52;4.85;;;;;;;;;;4997732;28;20089;-75
2023/12/03 10:29:19;;;;;;;29.23;4.65;;;;;;;;;;5012622;28;20033;-76
2023/12/03 10:31:49;;;;;;;20.80;4.25;;;;;;;;;;5011687;28;20093;-76
2023/12/03 10:34:16;;;;;;;20.08;4.78;;;;;;;;;;4976907;28;20108;-75
2023/12/03 10:36:45;;;;;;;29.33;5.30;;;;;;;;;;5014461;28;20092;-75
2023/12/03 10:39:16;;;;;;;19.05;4.78;;;;;;;;;;4997955;28;20492;-74
2023/12/03 10:41:46;;;;;;;18.73;5.47;;;;;;;;;;5014369;28;20468;-75
2023/12/03 10:44:23;;;;;;;22.15;4.60;;;;;;;;;;5014983;28;20550;-75
2023/12/03 10:46:50;;;;;;;28.50;5.65;;;;;;;;;;4997215;28;20052;-75
2023/12/03 10:49:16;;;;;;;15.32;4.05;;;;;;;;;;5011547;28;20068;-75
2023/12/03 10:51:44;;;;;;;21.77;4.65;;;;;;;;;;5012985;28;20224;-76
2023/12/03 10:54:10;;;;;;;22.40;4.93;;;;;;;;;;5014628;28;20022;-75
2023/12/03 10:56:37;;;;;;;41.00;16.38;;;;;;;;;;5015777;28;20089;-75
2023/12/03 10:59:10;;;;;;;38.88;10.05;;;;;;;;;;4998003;28;20454;-76
2023/12/03 11:01:41;;;;;;;;;;;;;;;;;;5015002;28;20129;-75
2023/12/03 11:04:48;;;;;;;34.53;5.47;;;;;;;;;;5014161;28;20383;-75
2023/12/03 11:07:19;;;;;;;21.65;5.05;;;;;;;;;;5015974;28;20038;-76
2023/12/03 11:09:45;;;;;;;27.85;5.43;;;;;;;;;;5016670;28;20030;-77
2023/12/03 11:12:11;;;;;;;20.35;5.28;;;;;;;;;;5017243;28;20034;-75
2023/12/03 11:14:38;;;;;;;22.83;5.40;;;;;;;;;;4982836;28;20041;-76
2023/12/03 11:17:40;;;;;;;25.58;8.50;;;;;;;;;;5014675;28;20038;-76
2023/12/03 11:20:14;;;;;;;33.85;10.85;;;;;;;;;;4983555;28;20054;-76
2023/12/03 11:23:08;;;;;;;34.75;8.77;;;;;;;;;;5014029;28;20045;-75
2023/12/03 11:25:38;;;;;;;27.00;6.65;;;;;;;;;;5013706;28;20038;-76
2023/12/03 11:28:04;;;;;;;18.90;5.68;;;;;;;;;;4984832;28;20041;-76
2023/12/03 11:30:40;;;;;;;21.67;5.45;;;;;;;;;;5019736;28;20431;-75
2023/12/03 11:33:13;;;;;;;22.95;6.30;;;;;;;;;;5013277;28;20471;-76
2023/12/03 11:35:43;;;;;;;18.52;4.70;;;;;;;;;;4995985;28;20037;-76
2023/12/03 11:38:19;;;;;;;22.63;5.72;;;;;;;;;;5013784;28;20100;-76
2023/12/03 11:40:46;;;;;;;26.00;4.70;;;;;;;;;;4994190;28;20061;-76
2023/12/03 11:43:28;;;;;;;20.95;4.65;;;;;;;;;;5016248;28;20029;-75
2023/12/03 11:45:54;;;;;;;22.25;4.88;;;;;;;;;;5014081;28;20431;-75
2023/12/03 11:48:22;;;;;;;22.85;4.75;;;;;;;;;;5015386;28;20013;-75
2023/12/03 11:50:49;;;;;;;18.00;5.50;;;;;;;;;;5015499;28;20037;-76
2023/12/03 11:53:16;;;;;;;19.33;4.35;;;;;;;;;;5008768;28;20130;-75
2023/12/03 11:55:49;;;;;;;30.48;5.82;;;;;;;;;;5011526;28;20136;-74
2023/12/03 11:58:15;;;;;;;18.35;4.88;;;;;;;;;;5011903;28;20029;-76
2023/12/03 12:00:41;;;;;;;23.42;5.53;;;;;;;;;;5013186;28;20022;-76
2023/12/03 12:03:08;;;;;;;28.80;5.28;;;;;;;;;;5010715;28;20110;-76
2023/12/03 12:05:42;;;;;;;20.77;5.00;;;;;;;;;;5012466;28;20405;-76
2023/12/03 12:08:08;;;;;;;30.92;6.32;;;;;;;;;;4995652;28;20429;-75
2023/12/03 12:10:34;;;;;;;22.67;4.78;;;;;;;;;;5012538;28;20061;-76
2023/12/03 12:13:02;;;;;;;35.83;11.02;;;;;;;;;;4995496;28;20452;-75
2023/12/03 12:15:28;;;;;;;28.85;7.85;;;;;;;;;;5012687;28;20041;-76
2023/12/03 12:17:54;;;;;;;22.25;5.45;;;;;;;;;;5012475;28;20492;-76
2023/12/03 12:20:23;;;;;;;20.80;5.90;;;;;;;;;;4979601;28;20029;-75
2023/12/03 12:22:51;;;;;;;29.42;6.43;;;;;;;;;;5012550;28;20125;-76
2023/12/03 12:25:17;;;;;;;23.20;5.95;;;;;;;;;;4995472;28;20034;-75
2023/12/03 12:27:45;;;;;;;27.27;5.47;;;;;;;;;;5013591;28;20041;-75
2023/12/03 12:30:16;;;;;;;27.33;7.50;;;;;;;;;;5012509;28;20475;-75
2023/12/03 12:32:42;;;;;;;25.50;7.10;;;;;;;;;;4992964;28;20080;-76
2023/12/03 12:35:10;;;;;;;15.00;5.65;;;;;;;;;;4993011;28;20058;-75
2023/12/03 12:37:37;;;;;;;31.83;6.50;;;;;;;;;;4993150;28;20399;-75
2023/12/03 12:40:07;;;;;;;23.10;6.60;;;;;;;;;;4993122;28;20102;-75
2023/12/03 12:42:33;;;;;;;28.83;6.38;;;;;;;;;;4993252;28;20117;-75
2023/12/03 12:45:02;;;;;;;25.30;6.20;;;;;;;;;;4994219;28;20048;-76
2023/12/03 12:47:39;;;;;;;27.70;8.15;;;;;;;;;;5011137;28;20140;-76
2023/12/03 12:50:08;;;;;;;30.38;6.28;;;;;;;;;;4989253;28;20141;-76
2023/12/03 12:52:35;;;;;;;25.42;6.65;;;;;;;;;;4984482;28;20085;-75
2023/12/03 12:55:01;;;;;;;33.05;8.02;;;;;;;;;;4992679;28;20038;-76
2023/12/03 12:57:27;;;;;;;25.13;6.03;;;;;;;;;;4992912;28;20022;-75
2023/12/03 12:59:53;;;;;;;22.25;6.43;;;;;;;;;;4991267;28;20527;-74
2023/12/03 13:02:24;;;;;;;20.27;6.05;;;;;;;;;;4992921;28;20030;-75
2023/12/03 13:04:50;;;;;;;18.42;4.85;;;;;;;;;;4991036;28;20412;-75
2023/12/03 13:07:17;;;;;;;22.42;6.07;;;;;;;;;;4992430;28;20030;-76
2023/12/03 13:09:43;;;;;;;22.55;5.40;;;;;;;;;;4975515;28;20034;-76
2023/12/03 13:12:09;;;;;;;17.30;4.78;;;;;;;;;;4992779;28;20030;-75
2023/12/03 13:14:36;;;;;;;27.73;8.55;;;;;;;;;;4991905;28;20042;-75
2023/12/03 13:17:03;;;;;;;18.45;6.57;;;;;;;;;;4974841;28;20022;-76
2023/12/03 13:19:29;;;;;;;20.10;5.75;;;;;;;;;;4992720;28;20050;-77
2023/12/03 13:21:55;;;;;;;19.08;5.80;;;;;;;;;;4978912;28;20014;-75
2023/12/03 13:24:22;;;;;;;30.33;5.10;;;;;;;;;;5011604;28;20112;-75
2023/12/03 13:26:48;;;;;;;24.95;6.15;;;;;;;;;;5011788;28;20096;-75
2023/12/03 13:29:14;;;;;;;27.90;9.85;;;;;;;;;;5012066;28;20483;-77
2023/12/03 13:31:40;;;;;;;26.60;6.80;;;;;;;;;;5010580;28;20076;-75
2023/12/03 13:34:08;;;;;;;24.48;6.85;;;;;;;;;;5012347;28;20041;-76
2023/12/03 13:36:34;;;;;;;28.05;7.00;;;;;;;;;;5011522;28;20084;-76
2023/12/03 13:39:00;;;;;;;30.13;10.18;;;;;;;;;;5026327;28;20035;-77
2023/12/03 13:41:29;;;;;;;32.13;14.30;;;;;;;;;;4998009;28;20113;-75
2023/12/03 13:43:57;;;;;;;26.70;7.50;;;;;;;;;;5011214;28;20040;-75
2023/12/03 13:46:23;;;;;;;20.00;7.28;;;;;;;;;;4992562;28;20029;-75
2023/12/03 13:48:50;;;;;;;27.63;6.45;;;;;;;;;;5007157;28;20510;-75
2023/12/03 13:51:16;;;;;;;38.38;15.30;;;;;;;;;;5008964;28;20026;-76
2023/12/03 13:53:42;;;;;;;21.00;9.27;;;;;;;;;;5011454;28;20030;-75
2023/12/03 13:56:12;;;;;;;24.17;8.75;;;;;;;;;;5008246;28;20508;-76
2023/12/03 13:58:39;;;;;;;32.50;8.55;;;;;;;;;;5008802;28;20033;-76
2023/12/03 14:01:05;;;;;;;26.40;8.15;;;;;;;;;;5009215;28;20145;-76
2023/12/03 14:03:30;;;;;;;22.88;7.85;;;;;;;;;;5004681;28;20109;-75
2023/12/03 14:05:56;;;;;;;26.30;9.07;;;;;;;;;;4990228;28;20061;-77
2023/12/03 14:08:22;;;;;;;29.08;9.13;;;;;;;;;;4995750;28;20488;-75
2023/12/03 14:10:47;;;;;;;31.48;9.02;;;;;;;;;;5014059;28;20034;-75
2023/12/03 14:13:13;;;;;;;29.20;9.00;;;;;;;;;;4983640;28;20524;-75
2023/12/03 14:15:39;;;;;;;23.45;7.25;;;;;;;;;;4990753;28;20471;-76
2023/12/03 14:18:05;;;;;;;31.58;9.07;;;;;;;;;;4976613;28;20042;-75
2023/12/03 14:20:30;;;;;;;29.27;8.68;;;;;;;;;;5015018;28;20624;-76
2023/12/03 14:22:58;;;;;;;23.15;8.55;;;;;;;;;;4990024;28;20056;-76
2023/12/03 14:25:25;;;;;;;32.47;9.38;;;;;;;;;;4992471;28;20033;-76
2023/12/03 14:27:51;;;;;;;39.53;10.07;;;;;;;;;;4995537;28;20372;-76